sensor_id;sensor_type;location;lat;lon;timestamp;temperature;humidity
5394;DHT22;2720;52.396;10.064;2023-08-06T00:01:04;13.90;99.90
5394;DHT22;2720;52.396;10.064;2023-08-06T00:03:31;13.90;99.90
5394;DHT22;2720;52.396;10.064;2023-08-06T00:05:58;14.00;99.90
5394;DHT22;2720;52.396;10.064;2023-08-06T00:08:24;13.90;99.90
5394;DHT22;2720;52.396;10.064;2023-08-06T00:10:51;14.00;99.90
5394;DHT22;2720;52.396;10.064;2023-08-06T00:13:20;13.90;99.90
5394;DHT22;2720;52.396;10.064;2023-08-06T00:15:47;13.90;99.90
5394;DHT22;2720;52.396;10.064;2023-08-06T00:18:14;13.80;99.90
5394;DHT22;2720;52.396;10.064;2023-08-06T00:20:40;13.70;99.90
5394;DHT22;2720;52.396;10.064;2023-08-06T00:23:08;13.80;99.90
5394;DHT22;2720;52.396;10.064;2023-08-06T00:25:34;13.80;99.90
5394;DHT22;2720;52.396;10.064;2023-08-06T00:28:01;13.90;99.90
5394;DHT22;2720;52.396;10.064;2023-08-06T00:30:30;13.90;99.90
5394;DHT22;2720;52.396;10.064;2023-08-06T00:32:57;13.90;99.90
5394;DHT22;2720;52.396;10.064;2023-08-06T00:35:24;13.90;99.90
5394;DHT22;2720;52.396;10.064;2023-08-06T00:37:51;13.90;99.90
5394;DHT22;2720;52.396;10.064;2023-08-06T00:40:20;13.90;99.90
5394;DHT22;2720;52.396;10.064;2023-08-06T00:42:48;13.90;99.90
5394;DHT22;2720;52.396;10.064;2023-08-06T00:45:15;13.90;99.90
5394;DHT22;2720;52.396;10.064;2023-08-06T00:47:43;13.90;99.90
5394;DHT22;2720;52.396;10.064;2023-08-06T00:50:11;13.90;99.90
5394;DHT22;2720;52.396;10.064;2023-08-06T00:52:38;13.90;99.90
5394;DHT22;2720;52.396;10.064;2023-08-06T00:55:06;14.00;99.90
5394;DHT22;2720;52.396;10.064;2023-08-06T00:57:33;14.00;99.90
5394;DHT22;2720;52.396;10.064;2023-08-06T01:00:02;14.00;99.90
5394;DHT22;2720;52.396;10.064;2023-08-06T01:02:30;13.90;99.90
5394;DHT22;2720;52.396;10.064;2023-08-06T01:04:58;13.80;99.90
5394;DHT22;2720;52.396;10.064;2023-08-06T01:07:35;13.80;99.90
5394;DHT22;2720;52.396;10.064;2023-08-06T01:10:19;13.80;99.90
5394;DHT22;2720;52.396;10.064;2023-08-06T01:12:54;13.90;99.90
5394;DHT22;2720;52.396;10.064;2023-08-06T01:15:26;13.90;99.90
5394;DHT22;2720;52.396;10.064;2023-08-06T01:17:55;13.90;99.90
5394;DHT22;2720;52.396;10.064;2023-08-06T01:20:30;13.80;99.90
5394;DHT22;2720;52.396;10.064;2023-08-06T01:22:57;13.80;99.90
5394;DHT22;2720;52.396;10.064;2023-08-06T01:25:29;13.80;99.90
5394;DHT22;2720;52.396;10.064;2023-08-06T01:28:01;13.70;99.90
5394;DHT22;2720;52.396;10.064;2023-08-06T01:30:32;13.80;99.90
5394;DHT22;2720;52.396;10.064;2023-08-06T01:33:04;13.80;99.90
5394;DHT22;2720;52.396;10.064;2023-08-06T01:35:33;13.80;99.90
5394;DHT22;2720;52.396;10.064;2023-08-06T01:38:02;13.80;99.90
5394;DHT22;2720;52.396;10.064;2023-08-06T01:40:29;13.80;99.90
5394;DHT22;2720;52.396;10.064;2023-08-06T01:42:57;13.80;99.90
5394;DHT22;2720;52.396;10.064;2023-08-06T01:45:24;13.80;99.90
5394;DHT22;2720;52.396;10.064;2023-08-06T01:47:51;13.70;99.90
5394;DHT22;2720;52.396;10.064;2023-08-06T01:50:18;13.80;99.90
5394;DHT22;2720;52.396;10.064;2023-08-06T01:52:46;13.80;99.90
5394;DHT22;2720;52.396;10.064;2023-08-06T01:55:13;13.80;99.90
5394;DHT22;2720;52.396;10.064;2023-08-06T01:57:40;13.80;99.90
5394;DHT22;2720;52.396;10.064;2023-08-06T02:00:08;13.80;99.90
5394;DHT22;2720;52.396;10.064;2023-08-06T02:02:35;13.70;99.90
5394;DHT22;2720;52.396;10.064;2023-08-06T02:05:02;13.60;99.90
5394;DHT22;2720;52.396;10.064;2023-08-06T02:07:29;13.60;99.90
5394;DHT22;2720;52.396;10.064;2023-08-06T02:09:57;13.50;99.90
5394;DHT22;2720;52.396;10.064;2023-08-06T02:12:24;13.40;99.90
5394;DHT22;2720;52.396;10.064;2023-08-06T02:14:51;13.40;99.90
5394;DHT22;2720;52.396;10.064;2023-08-06T02:17:18;13.30;99.90
5394;DHT22;2720;52.396;10.064;2023-08-06T02:19:45;13.30;99.90
5394;DHT22;2720;52.396;10.064;2023-08-06T02:22:12;13.30;99.90
5394;DHT22;2720;52.396;10.064;2023-08-06T02:24:39;13.30;99.90
5394;DHT22;2720;52.396;10.064;2023-08-06T02:27:07;13.30;99.90
5394;DHT22;2720;52.396;10.064;2023-08-06T02:29:34;13.30;99.90
5394;DHT22;2720;52.396;10.064;2023-08-06T02:32:01;13.20;99.90
5394;DHT22;2720;52.396;10.064;2023-08-06T02:34:28;13.20;99.90
5394;DHT22;2720;52.396;10.064;2023-08-06T02:36:55;13.10;99.90
5394;DHT22;2720;52.396;10.064;2023-08-06T02:39:22;13.10;99.90
5394;DHT22;2720;52.396;10.064;2023-08-06T02:41:49;13.10;99.90
5394;DHT22;2720;52.396;10.064;2023-08-06T02:44:17;13.20;99.90
5394;DHT22;2720;52.396;10.064;2023-08-06T02:46:44;13.30;99.90
5394;DHT22;2720;52.396;10.064;2023-08-06T02:49:11;13.30;99.90
5394;DHT22;2720;52.396;10.064;2023-08-06T02:51:38;13.30;99.90
5394;DHT22;2720;52.396;10.064;2023-08-06T02:54:05;13.40;99.90
5394;DHT22;2720;52.396;10.064;2023-08-06T02:56:32;13.30;99.90
5394;DHT22;2720;52.396;10.064;2023-08-06T02:58:59;13.30;99.90
5394;DHT22;2720;52.396;10.064;2023-08-06T03:01:27;13.20;99.90
5394;DHT22;2720;52.396;10.064;2023-08-06T03:03:54;13.30;99.90
5394;DHT22;2720;52.396;10.064;2023-08-06T03:06:21;13.30;99.90
5394;DHT22;2720;52.396;10.064;2023-08-06T03:08:48;13.30;99.90
5394;DHT22;2720;52.396;10.064;2023-08-06T03:11:15;13.40;99.90
5394;DHT22;2720;52.396;10.064;2023-08-06T03:13:42;13.40;99.90
5394;DHT22;2720;52.396;10.064;2023-08-06T03:16:09;13.30;99.90
5394;DHT22;2720;52.396;10.064;2023-08-06T03:18:37;13.40;99.90
5394;DHT22;2720;52.396;10.064;2023-08-06T03:21:04;13.30;99.90
5394;DHT22;2720;52.396;10.064;2023-08-06T03:23:31;13.30;99.90
5394;DHT22;2720;52.396;10.064;2023-08-06T03:26:01;13.40;99.90
5394;DHT22;2720;52.396;10.064;2023-08-06T03:28:29;13.30;99.90
5394;DHT22;2720;52.396;10.064;2023-08-06T03:30:59;13.30;99.90
5394;DHT22;2720;52.396;10.064;2023-08-06T03:33:27;13.30;99.90
5394;DHT22;2720;52.396;10.064;2023-08-06T03:35:55;13.40;99.90
5394;DHT22;2720;52.396;10.064;2023-08-06T03:38:22;13.30;99.90
5394;DHT22;2720;52.396;10.064;2023-08-06T03:40:49;13.30;99.90
5394;DHT22;2720;52.396;10.064;2023-08-06T03:43:16;13.20;99.90
5394;DHT22;2720;52.396;10.064;2023-08-06T03:45:43;13.20;99.90
5394;DHT22;2720;52.396;10.064;2023-08-06T03:48:11;13.30;99.90
5394;DHT22;2720;52.396;10.064;2023-08-06T03:50:38;13.30;99.90
5394;DHT22;2720;52.396;10.064;2023-08-06T03:53:06;13.20;99.90
5394;DHT22;2720;52.396;10.064;2023-08-06T03:55:33;13.20;99.90
5394;DHT22;2720;52.396;10.064;2023-08-06T03:58:00;13.20;99.90
5394;DHT22;2720;52.396;10.064;2023-08-06T04:00:27;13.10;99.90
5394;DHT22;2720;52.396;10.064;2023-08-06T04:02:54;13.10;99.90
5394;DHT22;2720;52.396;10.064;2023-08-06T04:05:21;13.10;99.90
5394;DHT22;2720;52.396;10.064;2023-08-06T04:07:48;13.20;99.90
5394;DHT22;2720;52.396;10.064;2023-08-06T04:10:16;13.30;99.90
5394;DHT22;2720;52.396;10.064;2023-08-06T04:12:43;13.40;99.90
5394;DHT22;2720;52.396;10.064;2023-08-06T04:15:10;13.40;99.90
5394;DHT22;2720;52.396;10.064;2023-08-06T04:17:37;13.40;99.90
5394;DHT22;2720;52.396;10.064;2023-08-06T04:20:05;13.50;99.90
5394;DHT22;2720;52.396;10.064;2023-08-06T04:22:32;13.40;99.90
5394;DHT22;2720;52.396;10.064;2023-08-06T04:24:59;13.30;99.90
5394;DHT22;2720;52.396;10.064;2023-08-06T04:27:27;13.30;99.90
5394;DHT22;2720;52.396;10.064;2023-08-06T04:29:54;13.40;99.90
5394;DHT22;2720;52.396;10.064;2023-08-06T04:32:21;13.50;99.90
5394;DHT22;2720;52.396;10.064;2023-08-06T04:34:48;13.50;99.90
5394;DHT22;2720;52.396;10.064;2023-08-06T04:37:15;13.50;99.90
5394;DHT22;2720;52.396;10.064;2023-08-06T04:39:42;13.60;99.90
5394;DHT22;2720;52.396;10.064;2023-08-06T04:42:09;13.60;99.90
5394;DHT22;2720;52.396;10.064;2023-08-06T04:44:37;13.60;99.90
5394;DHT22;2720;52.396;10.064;2023-08-06T04:47:04;13.60;99.90
5394;DHT22;2720;52.396;10.064;2023-08-06T04:49:31;13.60;99.90
5394;DHT22;2720;52.396;10.064;2023-08-06T04:51:58;13.60;99.90
5394;DHT22;2720;52.396;10.064;2023-08-06T04:54:25;13.60;99.90
5394;DHT22;2720;52.396;10.064;2023-08-06T04:56:52;13.60;99.90
5394;DHT22;2720;52.396;10.064;2023-08-06T04:59:19;13.60;99.90
5394;DHT22;2720;52.396;10.064;2023-08-06T05:01:47;13.60;99.90
5394;DHT22;2720;52.396;10.064;2023-08-06T05:04:14;13.50;99.90
5394;DHT22;2720;52.396;10.064;2023-08-06T05:06:41;13.50;99.90
5394;DHT22;2720;52.396;10.064;2023-08-06T05:09:08;13.50;99.90
5394;DHT22;2720;52.396;10.064;2023-08-06T05:11:35;13.60;99.90
5394;DHT22;2720;52.396;10.064;2023-08-06T05:14:02;13.70;99.90
5394;DHT22;2720;52.396;10.064;2023-08-06T05:16:29;13.70;99.90
5394;DHT22;2720;52.396;10.064;2023-08-06T05:18:57;13.70;99.90
5394;DHT22;2720;52.396;10.064;2023-08-06T05:21:24;13.70;99.90
5394;DHT22;2720;52.396;10.064;2023-08-06T05:23:51;13.70;99.90
5394;DHT22;2720;52.396;10.064;2023-08-06T05:26:18;13.80;99.90
5394;DHT22;2720;52.396;10.064;2023-08-06T05:28:45;13.90;99.90
5394;DHT22;2720;52.396;10.064;2023-08-06T05:31:12;14.10;99.90
5394;DHT22;2720;52.396;10.064;2023-08-06T05:33:39;14.10;99.90
5394;DHT22;2720;52.396;10.064;2023-08-06T05:36:07;14.10;99.90
5394;DHT22;2720;52.396;10.064;2023-08-06T05:38:34;14.20;99.90
5394;DHT22;2720;52.396;10.064;2023-08-06T05:41:01;14.20;99.90
5394;DHT22;2720;52.396;10.064;2023-08-06T05:43:29;14.20;99.90
5394;DHT22;2720;52.396;10.064;2023-08-06T05:45:56;14.20;99.90
5394;DHT22;2720;52.396;10.064;2023-08-06T05:48:23;14.40;99.90
5394;DHT22;2720;52.396;10.064;2023-08-06T05:50:51;14.50;99.90
5394;DHT22;2720;52.396;10.064;2023-08-06T05:53:19;14.60;99.90
5394;DHT22;2720;52.396;10.064;2023-08-06T05:55:47;14.70;99.90
5394;DHT22;2720;52.396;10.064;2023-08-06T05:58:14;14.80;99.90
5394;DHT22;2720;52.396;10.064;2023-08-06T06:00:41;14.80;99.90
5394;DHT22;2720;52.396;10.064;2023-08-06T06:03:08;14.80;99.90
5394;DHT22;2720;52.396;10.064;2023-08-06T06:05:37;14.90;99.90
5394;DHT22;2720;52.396;10.064;2023-08-06T06:08:04;14.90;99.90
5394;DHT22;2720;52.396;10.064;2023-08-06T06:10:33;15.00;99.90
5394;DHT22;2720;52.396;10.064;2023-08-06T06:13:00;15.10;99.90
5394;DHT22;2720;52.396;10.064;2023-08-06T06:15:27;15.20;99.90
5394;DHT22;2720;52.396;10.064;2023-08-06T06:17:54;15.30;99.90
5394;DHT22;2720;52.396;10.064;2023-08-06T06:20:21;15.30;99.90
5394;DHT22;2720;52.396;10.064;2023-08-06T06:22:48;15.40;99.90
5394;DHT22;2720;52.396;10.064;2023-08-06T06:25:15;15.40;99.90
5394;DHT22;2720;52.396;10.064;2023-08-06T06:27:43;15.30;99.90
5394;DHT22;2720;52.396;10.064;2023-08-06T06:30:11;15.40;99.90
5394;DHT22;2720;52.396;10.064;2023-08-06T06:32:38;15.40;99.90
5394;DHT22;2720;52.396;10.064;2023-08-06T06:35:07;15.40;99.90
5394;DHT22;2720;52.396;10.064;2023-08-06T06:37:34;15.50;99.90
5394;DHT22;2720;52.396;10.064;2023-08-06T06:40:01;15.60;99.90
5394;DHT22;2720;52.396;10.064;2023-08-06T06:42:28;15.60;99.90
5394;DHT22;2720;52.396;10.064;2023-08-06T06:44:56;15.60;99.90
5394;DHT22;2720;52.396;10.064;2023-08-06T06:47:23;15.60;99.90
5394;DHT22;2720;52.396;10.064;2023-08-06T06:49:50;15.60;99.90
5394;DHT22;2720;52.396;10.064;2023-08-06T06:52:17;15.60;99.90
5394;DHT22;2720;52.396;10.064;2023-08-06T06:54:44;15.70;99.90
5394;DHT22;2720;52.396;10.064;2023-08-06T06:57:11;15.70;99.90
5394;DHT22;2720;52.396;10.064;2023-08-06T06:59:38;15.70;99.90
5394;DHT22;2720;52.396;10.064;2023-08-06T07:02:07;15.80;99.90
5394;DHT22;2720;52.396;10.064;2023-08-06T07:04:34;15.80;99.90
5394;DHT22;2720;52.396;10.064;2023-08-06T07:07:01;15.80;99.90
5394;DHT22;2720;52.396;10.064;2023-08-06T07:09:27;15.80;99.90
5394;DHT22;2720;52.396;10.064;2023-08-06T07:11:54;16.20;99.90
5394;DHT22;2720;52.396;10.064;2023-08-06T07:14:21;15.70;99.90
5394;DHT22;2720;52.396;10.064;2023-08-06T07:16:48;15.70;99.90
5394;DHT22;2720;52.396;10.064;2023-08-06T07:19:17;15.70;99.90
5394;DHT22;2720;52.396;10.064;2023-08-06T07:21:43;15.70;99.90
5394;DHT22;2720;52.396;10.064;2023-08-06T07:24:10;15.70;99.90
5394;DHT22;2720;52.396;10.064;2023-08-06T07:26:37;15.70;99.90
5394;DHT22;2720;52.396;10.064;2023-08-06T07:29:04;15.70;99.90
5394;DHT22;2720;52.396;10.064;2023-08-06T07:31:31;15.90;99.90
5394;DHT22;2720;52.396;10.064;2023-08-06T07:33:58;16.00;99.90
5394;DHT22;2720;52.396;10.064;2023-08-06T07:36:26;16.20;99.90
5394;DHT22;2720;52.396;10.064;2023-08-06T07:38:53;16.30;99.90
5394;DHT22;2720;52.396;10.064;2023-08-06T07:41:22;16.50;99.90
5394;DHT22;2720;52.396;10.064;2023-08-06T07:43:49;16.60;99.90
5394;DHT22;2720;52.396;10.064;2023-08-06T07:46:16;16.60;99.90
5394;DHT22;2720;52.396;10.064;2023-08-06T07:48:43;16.60;99.90
5394;DHT22;2720;52.396;10.064;2023-08-06T07:51:10;16.70;99.90
5394;DHT22;2720;52.396;10.064;2023-08-06T07:53:38;16.80;99.90
5394;DHT22;2720;52.396;10.064;2023-08-06T07:56:05;16.90;99.90
5394;DHT22;2720;52.396;10.064;2023-08-06T07:58:32;17.00;99.90
5394;DHT22;2720;52.396;10.064;2023-08-06T08:00:59;17.10;99.90
5394;DHT22;2720;52.396;10.064;2023-08-06T08:03:26;17.30;99.90
5394;DHT22;2720;52.396;10.064;2023-08-06T08:05:55;17.40;99.90
5394;DHT22;2720;52.396;10.064;2023-08-06T08:08:24;17.50;99.90
5394;DHT22;2720;52.396;10.064;2023-08-06T08:10:53;17.60;99.90
5394;DHT22;2720;52.396;10.064;2023-08-06T08:13:20;17.80;99.90
5394;DHT22;2720;52.396;10.064;2023-08-06T08:15:47;17.80;99.90
5394;DHT22;2720;52.396;10.064;2023-08-06T08:18:14;17.80;99.90
5394;DHT22;2720;52.396;10.064;2023-08-06T08:20:41;17.70;99.90
5394;DHT22;2720;52.396;10.064;2023-08-06T08:23:08;17.80;99.90
5394;DHT22;2720;52.396;10.064;2023-08-06T08:25:35;17.90;99.90
5394;DHT22;2720;52.396;10.064;2023-08-06T08:28:03;18.20;99.90
5394;DHT22;2720;52.396;10.064;2023-08-06T08:30:30;18.30;99.90
5394;DHT22;2720;52.396;10.064;2023-08-06T08:32:57;18.30;99.90
5394;DHT22;2720;52.396;10.064;2023-08-06T08:35:24;18.20;99.90
5394;DHT22;2720;52.396;10.064;2023-08-06T08:37:51;18.40;99.90
5394;DHT22;2720;52.396;10.064;2023-08-06T08:40:20;18.60;99.90
5394;DHT22;2720;52.396;10.064;2023-08-06T08:42:49;18.70;99.90
5394;DHT22;2720;52.396;10.064;2023-08-06T08:45:20;18.80;99.90
5394;DHT22;2720;52.396;10.064;2023-08-06T08:47:48;18.90;99.90
5394;DHT22;2720;52.396;10.064;2023-08-06T08:50:16;19.10;99.90
5394;DHT22;2720;52.396;10.064;2023-08-06T08:52:45;19.00;99.90
5394;DHT22;2720;52.396;10.064;2023-08-06T08:55:15;19.10;99.90
5394;DHT22;2720;52.396;10.064;2023-08-06T08:57:42;19.20;99.90
5394;DHT22;2720;52.396;10.064;2023-08-06T09:00:09;18.90;99.90
5394;DHT22;2720;52.396;10.064;2023-08-06T09:02:39;19.00;99.90
5394;DHT22;2720;52.396;10.064;2023-08-06T09:05:07;18.90;99.90
5394;DHT22;2720;52.396;10.064;2023-08-06T09:07:41;19.00;99.90
5394;DHT22;2720;52.396;10.064;2023-08-06T09:10:10;19.10;99.90
5394;DHT22;2720;52.396;10.064;2023-08-06T09:12:39;19.10;99.90
5394;DHT22;2720;52.396;10.064;2023-08-06T09:15:07;19.00;99.90
5394;DHT22;2720;52.396;10.064;2023-08-06T09:17:34;19.00;99.90
5394;DHT22;2720;52.396;10.064;2023-08-06T09:20:11;19.00;99.90
5394;DHT22;2720;52.396;10.064;2023-08-06T09:22:38;18.90;99.90
5394;DHT22;2720;52.396;10.064;2023-08-06T09:25:05;19.00;99.90
5394;DHT22;2720;52.396;10.064;2023-08-06T09:27:35;19.00;99.90
5394;DHT22;2720;52.396;10.064;2023-08-06T09:30:04;19.10;99.90
5394;DHT22;2720;52.396;10.064;2023-08-06T09:32:45;18.90;99.90
5394;DHT22;2720;52.396;10.064;2023-08-06T09:35:17;19.00;99.90
5394;DHT22;2720;52.396;10.064;2023-08-06T09:37:45;19.00;99.90
5394;DHT22;2720;52.396;10.064;2023-08-06T09:40:26;19.20;99.90
5394;DHT22;2720;52.396;10.064;2023-08-06T09:42:53;19.30;99.90
5394;DHT22;2720;52.396;10.064;2023-08-06T09:45:20;19.30;99.90
5394;DHT22;2720;52.396;10.064;2023-08-06T09:47:48;19.40;99.90
5394;DHT22;2720;52.396;10.064;2023-08-06T09:50:19;19.60;99.90
5394;DHT22;2720;52.396;10.064;2023-08-06T09:52:47;19.90;99.90
5394;DHT22;2720;52.396;10.064;2023-08-06T09:55:14;20.30;99.90
5394;DHT22;2720;52.396;10.064;2023-08-06T09:57:42;20.40;99.90
5394;DHT22;2720;52.396;10.064;2023-08-06T10:00:10;20.60;99.90
5394;DHT22;2720;52.396;10.064;2023-08-06T10:02:39;20.50;99.90
5394;DHT22;2720;52.396;10.064;2023-08-06T10:05:07;20.40;99.90
5394;DHT22;2720;52.396;10.064;2023-08-06T10:07:36;20.40;99.90
5394;DHT22;2720;52.396;10.064;2023-08-06T10:10:05;20.50;99.90
5394;DHT22;2720;52.396;10.064;2023-08-06T10:12:35;20.60;99.90
5394;DHT22;2720;52.396;10.064;2023-08-06T10:15:09;20.40;99.90
5394;DHT22;2720;52.396;10.064;2023-08-06T10:17:38;20.30;99.90
5394;DHT22;2720;52.396;10.064;2023-08-06T10:20:08;20.20;99.90
5394;DHT22;2720;52.396;10.064;2023-08-06T10:22:36;20.20;99.90
5394;DHT22;2720;52.396;10.064;2023-08-06T10:25:08;20.20;99.90
5394;DHT22;2720;52.396;10.064;2023-08-06T10:27:40;20.30;99.90
5394;DHT22;2720;52.396;10.064;2023-08-06T10:30:21;20.30;99.90
5394;DHT22;2720;52.396;10.064;2023-08-06T10:32:50;20.30;99.90
5394;DHT22;2720;52.396;10.064;2023-08-06T10:35:30;20.30;99.90
5394;DHT22;2720;52.396;10.064;2023-08-06T10:38:02;20.20;99.90
5394;DHT22;2720;52.396;10.064;2023-08-06T10:40:31;19.90;99.90
5394;DHT22;2720;52.396;10.064;2023-08-06T10:42:59;19.70;99.90
5394;DHT22;2720;52.396;10.064;2023-08-06T10:45:26;19.70;99.90
5394;DHT22;2720;52.396;10.064;2023-08-06T10:47:55;19.80;99.90
5394;DHT22;2720;52.396;10.064;2023-08-06T10:50:23;20.00;99.90
5394;DHT22;2720;52.396;10.064;2023-08-06T10:52:50;20.20;99.90
5394;DHT22;2720;52.396;10.064;2023-08-06T10:55:25;20.30;99.90
5394;DHT22;2720;52.396;10.064;2023-08-06T10:57:53;20.50;99.90
5394;DHT22;2720;52.396;10.064;2023-08-06T11:00:21;20.70;99.90
5394;DHT22;2720;52.396;10.064;2023-08-06T11:02:49;20.70;99.90
5394;DHT22;2720;52.396;10.064;2023-08-06T11:05:17;20.50;99.90
5394;DHT22;2720;52.396;10.064;2023-08-06T11:07:44;20.30;99.90
5394;DHT22;2720;52.396;10.064;2023-08-06T11:10:12;20.40;99.90
5394;DHT22;2720;52.396;10.064;2023-08-06T11:12:41;20.60;99.90
5394;DHT22;2720;52.396;10.064;2023-08-06T11:15:09;21.00;99.90
5394;DHT22;2720;52.396;10.064;2023-08-06T13:58:16;27.10;99.90
5394;DHT22;2720;52.396;10.064;2023-08-06T14:00:43;27.20;99.90
5394;DHT22;2720;52.396;10.064;2023-08-06T14:03:10;27.50;99.90
5394;DHT22;2720;52.396;10.064;2023-08-06T14:05:36;27.60;99.90
5394;DHT22;2720;52.396;10.064;2023-08-06T14:08:05;27.60;99.90
5394;DHT22;2720;52.396;10.064;2023-08-06T14:10:32;27.20;99.90
5394;DHT22;2720;52.396;10.064;2023-08-06T14:12:59;27.00;99.90
5394;DHT22;2720;52.396;10.064;2023-08-06T14:15:26;27.40;99.90
5394;DHT22;2720;52.396;10.064;2023-08-06T14:17:53;27.80;99.90
5394;DHT22;2720;52.396;10.064;2023-08-06T14:20:20;27.90;99.90
5394;DHT22;2720;52.396;10.064;2023-08-06T14:22:47;27.60;99.90
5394;DHT22;2720;52.396;10.064;2023-08-06T14:25:15;26.70;99.90
5394;DHT22;2720;52.396;10.064;2023-08-06T14:27:42;26.30;99.90
5394;DHT22;2720;52.396;10.064;2023-08-06T14:30:10;26.60;99.90
5394;DHT22;2720;52.396;10.064;2023-08-06T14:32:37;26.90;99.90
5394;DHT22;2720;52.396;10.064;2023-08-06T14:35:04;27.20;99.90
5394;DHT22;2720;52.396;10.064;2023-08-06T14:37:31;27.40;99.90
5394;DHT22;2720;52.396;10.064;2023-08-06T14:39:58;27.50;99.90
5394;DHT22;2720;52.396;10.064;2023-08-06T14:42:27;26.70;99.90
5394;DHT22;2720;52.396;10.064;2023-08-06T14:44:53;26.30;99.90
5394;DHT22;2720;52.396;10.064;2023-08-06T14:47:20;26.10;99.90
5394;DHT22;2720;52.396;10.064;2023-08-06T14:49:47;25.70;99.90
5394;DHT22;2720;52.396;10.064;2023-08-06T14:52:15;25.20;99.90
5394;DHT22;2720;52.396;10.064;2023-08-06T14:54:42;24.50;99.90
5394;DHT22;2720;52.396;10.064;2023-08-06T14:57:09;24.70;99.90
5394;DHT22;2720;52.396;10.064;2023-08-06T14:59:37;24.90;99.90
5394;DHT22;2720;52.396;10.064;2023-08-06T15:02:05;25.20;99.90
5394;DHT22;2720;52.396;10.064;2023-08-06T15:04:32;25.40;99.90
5394;DHT22;2720;52.396;10.064;2023-08-06T15:06:59;25.20;99.90
5394;DHT22;2720;52.396;10.064;2023-08-06T15:09:26;24.50;99.90
5394;DHT22;2720;52.396;10.064;2023-08-06T15:11:53;23.80;99.90
5394;DHT22;2720;52.396;10.064;2023-08-06T15:14:20;23.20;99.90
5394;DHT22;2720;52.396;10.064;2023-08-06T15:16:48;23.00;99.90
5394;DHT22;2720;52.396;10.064;2023-08-06T15:19:17;23.10;99.90
5394;DHT22;2720;52.396;10.064;2023-08-06T15:21:44;23.80;99.90
5394;DHT22;2720;52.396;10.064;2023-08-06T15:24:11;24.60;99.90
5394;DHT22;2720;52.396;10.064;2023-08-06T15:26:38;25.00;99.90
5394;DHT22;2720;52.396;10.064;2023-08-06T15:29:05;24.80;99.90
5394;DHT22;2720;52.396;10.064;2023-08-06T15:31:36;24.20;99.90
5394;DHT22;2720;52.396;10.064;2023-08-06T15:34:05;24.10;99.90
5394;DHT22;2720;52.396;10.064;2023-08-06T15:36:32;24.40;99.90
5394;DHT22;2720;52.396;10.064;2023-08-06T15:38:59;24.80;99.90
5394;DHT22;2720;52.396;10.064;2023-08-06T15:41:26;25.00;99.90
5394;DHT22;2720;52.396;10.064;2023-08-06T15:43:53;24.90;99.90
5394;DHT22;2720;52.396;10.064;2023-08-06T15:46:20;24.20;99.90
5394;DHT22;2720;52.396;10.064;2023-08-06T15:48:47;24.20;99.90
5394;DHT22;2720;52.396;10.064;2023-08-06T15:51:15;24.20;99.90
5394;DHT22;2720;52.396;10.064;2023-08-06T15:53:42;23.90;99.90
5394;DHT22;2720;52.396;10.064;2023-08-06T15:56:09;23.70;99.90
5394;DHT22;2720;52.396;10.064;2023-08-06T15:58:36;23.90;99.90
5394;DHT22;2720;52.396;10.064;2023-08-06T16:01:03;24.00;99.90
5394;DHT22;2720;52.396;10.064;2023-08-06T16:03:30;23.90;99.90
5394;DHT22;2720;52.396;10.064;2023-08-06T16:05:57;23.70;99.90
5394;DHT22;2720;52.396;10.064;2023-08-06T16:08:25;23.30;99.90
5394;DHT22;2720;52.396;10.064;2023-08-06T16:10:53;23.10;99.90
5394;DHT22;2720;52.396;10.064;2023-08-06T16:13:20;22.90;99.90
5394;DHT22;2720;52.396;10.064;2023-08-06T16:15:47;22.80;99.90
5394;DHT22;2720;52.396;10.064;2023-08-06T16:18:14;22.60;99.90
5394;DHT22;2720;52.396;10.064;2023-08-06T16:20:42;22.40;99.90
5394;DHT22;2720;52.396;10.064;2023-08-06T16:23:09;22.30;99.90
5394;DHT22;2720;52.396;10.064;2023-08-06T16:25:38;22.20;99.90
5394;DHT22;2720;52.396;10.064;2023-08-06T16:28:11;22.30;99.90
5394;DHT22;2720;52.396;10.064;2023-08-06T16:30:43;22.40;99.90
5394;DHT22;2720;52.396;10.064;2023-08-06T16:33:11;22.50;99.90
5394;DHT22;2720;52.396;10.064;2023-08-06T16:35:38;22.40;99.90
5394;DHT22;2720;52.396;10.064;2023-08-06T16:38:05;22.20;99.90
5394;DHT22;2720;52.396;10.064;2023-08-06T16:40:32;21.90;99.90
5394;DHT22;2720;52.396;10.064;2023-08-06T16:43:01;21.70;99.90
5394;DHT22;2720;52.396;10.064;2023-08-06T16:45:29;21.50;99.90
5394;DHT22;2720;52.396;10.064;2023-08-06T16:47:56;21.40;99.90
5394;DHT22;2720;52.396;10.064;2023-08-06T16:50:23;21.40;99.90
5394;DHT22;2720;52.396;10.064;2023-08-06T16:52:50;21.20;99.90
5394;DHT22;2720;52.396;10.064;2023-08-06T16:55:17;21.20;99.90
5394;DHT22;2720;52.396;10.064;2023-08-06T16:57:44;21.20;99.90
5394;DHT22;2720;52.396;10.064;2023-08-06T17:00:13;21.20;99.90
5394;DHT22;2720;52.396;10.064;2023-08-06T17:02:40;21.20;99.90
5394;DHT22;2720;52.396;10.064;2023-08-06T17:05:07;21.10;99.90
5394;DHT22;2720;52.396;10.064;2023-08-06T17:07:34;21.00;99.90
5394;DHT22;2720;52.396;10.064;2023-08-06T17:10:01;21.20;99.90
5394;DHT22;2720;52.396;10.064;2023-08-06T17:12:29;21.00;99.90
5394;DHT22;2720;52.396;10.064;2023-08-06T17:14:57;20.70;99.90
5394;DHT22;2720;52.396;10.064;2023-08-06T17:17:26;20.60;99.90
5394;DHT22;2720;52.396;10.064;2023-08-06T17:19:53;20.70;99.90
5394;DHT22;2720;52.396;10.064;2023-08-06T17:22:21;20.70;99.90
5394;DHT22;2720;52.396;10.064;2023-08-06T17:24:48;20.80;99.90
5394;DHT22;2720;52.396;10.064;2023-08-06T17:27:15;20.80;99.90
5394;DHT22;2720;52.396;10.064;2023-08-06T17:29:42;21.10;99.90
5394;DHT22;2720;52.396;10.064;2023-08-06T17:32:10;21.60;99.90
5394;DHT22;2720;52.396;10.064;2023-08-06T17:34:40;22.10;99.90
5394;DHT22;2720;52.396;10.064;2023-08-06T17:37:08;22.70;99.90
5394;DHT22;2720;52.396;10.064;2023-08-06T17:39:35;23.30;99.90
5394;DHT22;2720;52.396;10.064;2023-08-06T17:42:02;23.10;99.90
5394;DHT22;2720;52.396;10.064;2023-08-06T17:44:29;22.50;99.90
5394;DHT22;2720;52.396;10.064;2023-08-06T17:46:57;22.00;99.90
5394;DHT22;2720;52.396;10.064;2023-08-06T17:49:26;21.40;99.90
5394;DHT22;2720;52.396;10.064;2023-08-06T17:51:54;20.90;99.90
5394;DHT22;2720;52.396;10.064;2023-08-06T17:54:21;20.50;99.90
5394;DHT22;2720;52.396;10.064;2023-08-06T17:56:48;20.30;99.90
5394;DHT22;2720;52.396;10.064;2023-08-06T17:59:15;20.00;99.90
5394;DHT22;2720;52.396;10.064;2023-08-06T18:01:42;19.80;99.90
5394;DHT22;2720;52.396;10.064;2023-08-06T18:04:09;19.60;99.90
5394;DHT22;2720;52.396;10.064;2023-08-06T18:06:36;19.50;99.90
5394;DHT22;2720;52.396;10.064;2023-08-06T18:09:05;19.30;99.90
5394;DHT22;2720;52.396;10.064;2023-08-06T18:11:32;19.10;99.90
5394;DHT22;2720;52.396;10.064;2023-08-06T18:13:59;19.10;99.90
5394;DHT22;2720;52.396;10.064;2023-08-06T18:16:26;19.10;99.90
5394;DHT22;2720;52.396;10.064;2023-08-06T18:18:54;19.00;99.90
5394;DHT22;2720;52.396;10.064;2023-08-06T18:21:23;19.00;99.90
5394;DHT22;2720;52.396;10.064;2023-08-06T18:23:50;19.00;99.90
5394;DHT22;2720;52.396;10.064;2023-08-06T18:26:19;18.90;99.90
5394;DHT22;2720;52.396;10.064;2023-08-06T18:28:46;18.70;99.90